Sao Borja, Brazil
Current Conditions -  °F | °C
As of 6:00 PM on Monday 20 Oct 2014 (Local Time) from SARP Reporting Station
Clear Clear  
Wind Chill: 82°   Ceiling: Unl
Heat Index: 82°   Visibility: 6mi
Dew Point: 45°   Wind: 12mph
Humidity: 26%   Direction: 160°SSE
Pressure: 30.03"   Gusts: NA
Location:  28.66°S, 56°W
Report Text: SARP 202100Z 16010KT CAVOK 28/07 Q1017
Loading
Personal Weather Stations






























Interactive Weather Map
Tropical Storm Tracking
New forecast layout! Learn more

10-Day Weather Forecast

Advertisements
Track Severe Weather on mobile